Terminal Aerodrome Forecast
Issued by NWS Binghamton, NY

Home | Current Version | Previous Version | Text Only | Print | Product List | Glossary On
Versions: 1 2 3 4 5 6 7 8 9 10 11 12 13 14 15 16
000
FTUS41 KBGM 241742 RRA
TAFSYR
TAF
KSYR 241742Z 2418/2518 12008KT P6SM -SHRA BKN035
      TEMPO 2419/2422 4SM -TSRA OVC025CB
     FM250200 08008KT P6SM BKN040
     FM250500 11004KT P6SM BKN025
      TEMPO 2509/2512 5SM BR OVC015
     FM251600 05006KT P6SM BKN030=

USA.gov is the U.S. government's official web portal to all federal, state and local government web resources and services.